Time;durP1;ratioP1;P1;durP2;ratioP2;P2;SDS_P1;SDS_P2;PMS_P1;PMS_P2;Temp;Humidity;BMP_temperature;BMP_pressure;BME280_temperature;BME280_humidity;BME280_pressure;Samples;Min_cycle;Max_cycle;Signal;HPM_P1;HPM_P2
2022/02/03 00:00:36;;;;;;;6.40;2.92;;;;;;;;;;6274795;22;20026;-78
2022/02/03 00:03:12;;;;;;;8.05;3.30;;;;;;;;;;6276078;22;20015;-78
2022/02/03 00:05:46;;;;;;;;;;;;;;;;;;6275836;22;20100;-77
2022/02/03 00:08:24;;;;;;;5.60;3.42;;;;;;;;;;6274120;22;19912;-76
2022/02/03 00:11:25;;;;;;;5.80;3.70;;;;;;;;;;6275308;22;20043;-76
2022/02/03 00:17:03;;;;;;;4.85;2.63;;;;;;;;;;6275012;22;20022;-77
2022/02/03 00:22:33;;;;;;;4.40;2.17;;;;;;;;;;6274204;22;20499;-77
2022/02/03 00:25:11;;;;;;;4.55;1.90;;;;;;;;;;6274516;22;20087;-78
2022/02/03 00:27:52;;;;;;;5.03;2.08;;;;;;;;;;6274286;22;20023;-77
2022/02/03 00:30:21;;;;;;;4.80;2.80;;;;;;;;;;6274459;22;20383;-79
2022/02/03 00:35:43;;;;;;;6.95;3.72;;;;;;;;;;6273198;22;20016;-77
2022/02/03 00:38:23;;;;;;;5.82;2.85;;;;;;;;;;6274483;22;20069;-78
2022/02/03 00:49:06;;;;;;;5.88;2.50;;;;;;;;;;6274443;22;20050;-78
2022/02/03 00:51:35;;;;;;;6.10;2.58;;;;;;;;;;6274640;22;20023;-78
2022/02/03 00:54:02;;;;;;;4.10;2.10;;;;;;;;;;6274521;22;20011;-78
2022/02/03 00:56:33;;;;;;;4.20;2.10;;;;;;;;;;6274031;22;20015;-76
2022/02/03 00:59:04;;;;;;;5.93;2.47;;;;;;;;;;6273685;22;20016;-79
2022/02/03 01:01:33;;;;;;;4.63;2.00;;;;;;;;;;6274034;22;20058;-76
2022/02/03 01:04:02;;;;;;;8.00;2.58;;;;;;;;;;6274321;22;20329;-77
2022/02/03 01:06:30;;;;;;;6.13;2.47;;;;;;;;;;6274116;22;20065;-76
2022/02/03 01:08:58;;;;;;;24.17;10.75;;;;;;;;;;6274647;22;20023;-78
2022/02/03 01:11:29;;;;;;;13.60;6.93;;;;;;;;;;6273911;22;20050;-76
2022/02/03 01:14:04;;;;;;;16.17;6.47;;;;;;;;;;6274465;22;20048;-76
2022/02/03 01:16:44;;;;;;;10.15;5.32;;;;;;;;;;6273506;22;20761;-78
2022/02/03 01:19:37;;;;;;;9.77;4.47;;;;;;;;;;6274081;22;20077;-77
2022/02/03 01:33:41;;;;;;;10.60;4.55;;;;;;;;;;6274057;22;20027;-78
2022/02/03 01:44:45;;;;;;;5.90;2.60;;;;;;;;;;6272010;22;20453;-78
2022/02/03 01:47:26;;;;;;;5.30;2.70;;;;;;;;;;6273651;22;20016;-77
2022/02/03 01:52:40;;;;;;;6.45;1.65;;;;;;;;;;6274350;22;20073;-77
2022/02/03 01:55:09;;;;;;;3.40;1.73;;;;;;;;;;6273693;22;20432;-77
2022/02/03 01:57:41;;;;;;;4.30;2.60;;;;;;;;;;6274067;22;20020;-77
2022/02/03 02:00:10;;;;;;;3.47;1.63;;;;;;;;;;6273538;22;20429;-77
2022/02/03 02:02:39;;;;;;;4.97;1.90;;;;;;;;;;6273898;22;20471;-77
2022/02/03 02:05:15;;;;;;;4.40;1.67;;;;;;;;;;6274149;22;20023;-78
2022/02/03 02:07:57;;;;;;;5.95;1.73;;;;;;;;;;6274118;22;20066;-78
2022/02/03 02:10:46;;;;;;;2.35;1.40;;;;;;;;;;6274087;22;20023;-77
2022/02/03 02:13:40;;;;;;;3.30;1.80;;;;;;;;;;6274190;22;20015;-76
2022/02/03 02:19:08;;;;;;;4.60;1.95;;;;;;;;;;6273768;22;20019;-76
2022/02/03 02:38:15;;;;;;;2.30;1.50;;;;;;;;;;6273303;22;20317;-77
2022/02/03 02:41:31;;;;;;;3.65;1.77;;;;;;;;;;6275231;22;20043;-77
2022/02/03 02:43:52;;;;;;;2.42;1.55;;;;;;;;;;6275190;22;20050;-77
2022/02/03 02:46:22;;;;;;;4.05;1.80;;;;;;;;;;6275120;22;20475;-77
2022/02/03 02:49:09;;;;;;;2.63;1.27;;;;;;;;;;6275462;22;20472;-77
2022/02/03 02:51:48;;;;;;;4.45;1.58;;;;;;;;;;6275346;22;20355;-76
2022/02/03 02:54:42;;;;;;;2.28;1.35;;;;;;;;;;6275860;22;20070;-77
2022/02/03 03:00:28;;;;;;;3.50;1.60;;;;;;;;;;6274162;22;20019;-77
2022/02/03 03:30:38;;;;;;;6.55;2.13;;;;;;;;;;6274435;22;20049;-77
2022/02/03 03:33:16;;;;;;;;;;;;;;;;;;6275700;22;20023;-77
2022/02/03 03:35:47;;;;;;;6.05;2.92;;;;;;;;;;6275275;22;19943;-77
2022/02/03 03:38:18;;;;;;;5.25;2.60;;;;;;;;;;6275257;22;20019;-77
2022/02/03 03:40:49;;;;;;;5.85;2.63;;;;;;;;;;6275105;22;20012;-76
2022/02/03 03:43:22;;;;;;;11.50;3.65;;;;;;;;;;6275838;22;20023;-78
2022/02/03 03:45:53;;;;;;;9.77;3.70;;;;;;;;;;6275255;22;20038;-77
2022/02/03 03:48:22;;;;;;;9.55;3.65;;;;;;;;;;6275141;22;20023;-77
2022/02/03 03:50:51;;;;;;;10.60;4.68;;;;;;;;;;6274851;22;20020;-77
2022/02/03 03:53:27;;;;;;;15.77;5.43;;;;;;;;;;6275262;22;20012;-77
2022/02/03 03:56:02;;;;;;;17.23;6.65;;;;;;;;;;6275584;22;20020;-76
2022/02/03 04:30:12;;;;;;;8.20;4.20;;;;;;;;;;6272626;22;20705;-77
2022/02/03 04:33:11;;;;;;;8.88;4.00;;;;;;;;;;6274276;22;20015;-78
2022/02/03 04:39:01;;;;;;;9.50;4.60;;;;;;;;;;6272754;22;20016;-77
2022/02/03 05:02:15;;;;;;;8.52;5.40;;;;;;;;;;6271535;22;20058;-77
2022/02/03 05:05:03;;;;;;;9.63;4.25;;;;;;;;;;6273875;22;20094;-77
2022/02/03 05:07:53;;;;;;;8.68;4.22;;;;;;;;;;6274214;22;20018;-76
2022/02/03 05:10:43;;;;;;;10.55;5.13;;;;;;;;;;6274299;22;20094;-76
2022/02/03 05:13:44;;;;;;;8.75;4.82;;;;;;;;;;6274751;22;20011;-78
2022/02/03 05:16:43;;;;;;;8.35;4.18;;;;;;;;;;6274559;22;20054;-77
2022/02/03 05:22:58;;;;;;;7.45;4.38;;;;;;;;;;6272827;22;20051;-77
2022/02/03 05:47:07;;;;;;;14.10;6.40;;;;;;;;;;4853221;27;8236745;-76
2022/02/03 05:49:58;;;;;;;11.15;5.57;;;;;;;;;;5145999;27;20038;-78
2022/02/03 06:01:04;;;;;;;14.23;6.85;;;;;;;;;;5149467;27;20050;-79
2022/02/03 06:03:50;;;;;;;13.40;7.05;;;;;;;;;;5148218;27;20034;-78
2022/02/03 06:06:37;;;;;;;13.75;6.03;;;;;;;;;;5143677;27;20040;-78
2022/02/03 06:09:19;;;;;;;12.98;6.25;;;;;;;;;;5142733;27;20640;-79
2022/02/03 06:12:22;;;;;;;12.00;6.05;;;;;;;;;;5142378;27;20134;-80
2022/02/03 06:14:58;;;;;;;14.07;6.32;;;;;;;;;;5141918;27;20046;-78
2022/02/03 06:17:37;;;;;;;11.50;6.68;;;;;;;;;;5147744;27;20039;-79
2022/02/03 06:22:54;;;;;;;12.68;7.03;;;;;;;;;;5142827;27;20053;-79
2022/02/03 06:28:05;;;;;;;12.18;5.97;;;;;;;;;;5159396;27;20088;-79
2022/02/03 06:30:31;;;;;;;12.00;5.93;;;;;;;;;;5154235;27;20043;-79
2022/02/03 06:32:58;;;;;;;16.98;6.82;;;;;;;;;;5140737;27;20425;-78
2022/02/03 06:35:26;;;;;;;14.60;6.68;;;;;;;;;;5158809;27;20453;-79
2022/02/03 06:37:53;;;;;;;11.85;6.35;;;;;;;;;;5167890;27;20094;-80
2022/02/03 06:40:19;;;;;;;11.88;6.30;;;;;;;;;;5153044;27;20082;-78
2022/02/03 06:42:46;;;;;;;13.88;6.93;;;;;;;;;;5157681;27;20121;-78
2022/02/03 06:45:17;;;;;;;14.57;7.05;;;;;;;;;;5157835;27;20077;-79
2022/02/03 06:47:52;;;;;;;11.65;6.63;;;;;;;;;;5156895;27;20043;-79
2022/02/03 06:50:23;;;;;;;14.45;6.97;;;;;;;;;;5155255;27;20051;-78
2022/02/03 06:52:56;;;;;;;14.50;7.78;;;;;;;;;;5155249;27;20129;-79
2022/02/03 06:55:35;;;;;;;13.43;6.57;;;;;;;;;;5155012;27;20586;-79
2022/02/03 06:58:07;;;;;;;13.40;6.93;;;;;;;;;;5140502;27;20039;-79
2022/02/03 07:00:38;;;;;;;14.20;7.25;;;;;;;;;;5121050;27;20047;-78
2022/02/03 07:03:11;;;;;;;12.32;6.47;;;;;;;;;;5138549;27;20154;-77
2022/02/03 07:05:37;;;;;;;13.55;6.95;;;;;;;;;;5138816;27;20456;-78
2022/02/03 07:08:06;;;;;;;13.70;7.40;;;;;;;;;;5136117;27;20505;-78
2022/02/03 07:10:33;;;;;;;13.57;7.30;;;;;;;;;;5143271;27;20043;-78
2022/02/03 07:13:00;;;;;;;12.55;6.85;;;;;;;;;;5136829;27;20043;-78
2022/02/03 07:15:26;;;;;;;15.02;7.32;;;;;;;;;;5137301;27;20119;-78
2022/02/03 07:17:57;;;;;;;12.10;6.68;;;;;;;;;;5143671;27;20067;-78
2022/02/03 07:20:25;;;;;;;14.02;6.90;;;;;;;;;;5140472;27;20042;-78
2022/02/03 07:22:51;;;;;;;14.20;7.53;;;;;;;;;;5141976;27;20092;-78
2022/02/03 07:25:19;;;;;;;14.65;7.35;;;;;;;;;;5136972;27;20074;-79
2022/02/03 07:27:46;;;;;;;14.68;7.82;;;;;;;;;;5138097;27;20082;-77
2022/02/03 07:30:13;;;;;;;14.18;7.60;;;;;;;;;;5138653;27;20096;-78
2022/02/03 07:32:39;;;;;;;14.68;7.30;;;;;;;;;;5143907;27;20042;-78
2022/02/03 07:35:08;;;;;;;16.13;7.82;;;;;;;;;;5145093;27;20082;-78
2022/02/03 07:37:42;;;;;;;14.23;6.95;;;;;;;;;;5137291;27;20493;-78
2022/02/03 07:40:10;;;;;;;14.57;8.05;;;;;;;;;;5139971;27;20047;-79
2022/02/03 07:42:38;;;;;;;13.65;7.80;;;;;;;;;;5142694;27;20042;-77
2022/02/03 07:45:06;;;;;;;32.53;8.20;;;;;;;;;;5141296;27;20132;-78
2022/02/03 07:47:33;;;;;;;12.82;6.70;;;;;;;;;;5138967;27;20115;-78
2022/02/03 07:49:59;;;;;;;12.30;7.03;;;;;;;;;;5138304;27;20066;-79
2022/02/03 07:52:26;;;;;;;13.90;8.38;;;;;;;;;;5137993;27;20074;-78
2022/02/03 07:54:52;;;;;;;16.42;9.20;;;;;;;;;;5136165;27;20137;-78
2022/02/03 07:57:22;;;;;;;15.57;8.43;;;;;;;;;;5140192;27;20081;-78
2022/02/03 07:59:50;;;;;;;15.35;8.63;;;;;;;;;;5145964;27;20418;-78
2022/02/03 08:02:17;;;;;;;14.60;8.50;;;;;;;;;;5138797;27;20503;-78
2022/02/03 08:04:46;;;;;;;15.52;8.10;;;;;;;;;;5142366;27;20077;-78
2022/02/03 08:07:16;;;;;;;13.27;8.18;;;;;;;;;;5134043;27;20047;-78
2022/02/03 08:09:50;;;;;;;13.15;7.65;;;;;;;;;;5136630;27;20104;-78
2022/02/03 08:12:20;;;;;;;16.90;7.78;;;;;;;;;;5140048;27;20057;-78
2022/02/03 08:14:49;;;;;;;13.68;7.90;;;;;;;;;;5138412;27;20039;-78
2022/02/03 08:17:21;;;;;;;12.77;7.38;;;;;;;;;;5139506;27;20119;-78
2022/02/03 08:19:54;;;;;;;14.68;8.07;;;;;;;;;;5141093;27;20436;-78
2022/02/03 08:22:25;;;;;;;14.82;7.93;;;;;;;;;;5135897;27;20059;-78
2022/02/03 08:24:55;;;;;;;17.38;9.00;;;;;;;;;;5138477;27;20536;-79
2022/02/03 08:27:39;;;;;;;16.50;8.98;;;;;;;;;;5140746;27;20499;-76
2022/02/03 08:30:22;;;;;;;27.50;9.13;;;;;;;;;;5134663;27;20058;-76
2022/02/03 08:32:55;;;;;;;14.88;8.35;;;;;;;;;;5134051;27;20068;-76
2022/02/03 08:35:34;;;;;;;18.40;8.75;;;;;;;;;;5115612;27;20047;-79
2022/02/03 08:38:07;;;;;;;17.30;8.45;;;;;;;;;;5117483;27;20081;-79
2022/02/03 08:40:44;;;;;;;14.70;9.05;;;;;;;;;;5120171;27;20399;-78
2022/02/03 08:43:11;;;;;;;12.48;7.68;;;;;;;;;;5122563;27;20054;-79
2022/02/03 08:45:38;;;;;;;10.88;7.15;;;;;;;;;;5116686;27;20142;-78
2022/02/03 08:48:06;;;;;;;16.48;7.15;;;;;;;;;;5117490;27;20070;-79
2022/02/03 08:50:34;;;;;;;13.15;7.53;;;;;;;;;;5121482;27;20074;-78
2022/02/03 08:53:06;;;;;;;12.25;7.45;;;;;;;;;;5117298;27;20071;-78
2022/02/03 08:55:40;;;;;;;12.65;6.93;;;;;;;;;;5113832;27;20075;-79
2022/02/03 09:29:12;;;;;;;8.32;5.10;;;;;;;;;;5112919;27;20045;-78
2022/02/03 09:56:36;;;;;;;7.78;3.60;;;;;;;;;;5138383;27;20139;-79
2022/02/03 09:59:10;;;;;;;5.85;3.83;;;;;;;;;;5145145;27;20043;-78
2022/02/03 10:01:42;;;;;;;6.10;3.45;;;;;;;;;;5134696;27;20501;-78
2022/02/03 10:04:13;;;;;;;6.07;3.42;;;;;;;;;;5136308;27;20474;-76
2022/02/03 10:06:50;;;;;;;5.10;3.00;;;;;;;;;;5134201;27;20167;-76
2022/02/03 10:09:35;;;;;;;6.00;3.63;;;;;;;;;;5134660;27;20083;-77
2022/02/03 10:12:02;;;;;;;5.60;3.30;;;;;;;;;;5141312;27;20077;-77
2022/02/03 10:14:32;;;;;;;5.00;3.15;;;;;;;;;;5133631;27;20089;-77
2022/02/03 10:17:00;;;;;;;10.52;3.90;;;;;;;;;;5136546;27;21377;-77
2022/02/03 10:19:33;;;;;;;6.75;4.22;;;;;;;;;;5134802;27;20039;-77
2022/02/03 10:22:01;;;;;;;8.73;4.05;;;;;;;;;;5138951;27;20044;-77
2022/02/03 10:24:33;;;;;;;8.80;4.85;;;;;;;;;;5135143;27;20372;-77
2022/02/03 10:27:00;;;;;;;7.57;4.63;;;;;;;;;;5136474;27;20760;-77
2022/02/03 10:29:31;;;;;;;7.05;3.85;;;;;;;;;;5133632;27;20079;-77
2022/02/03 10:31:58;;;;;;;6.53;4.35;;;;;;;;;;5133527;27;20073;-79
2022/02/03 10:34:28;;;;;;;5.55;3.50;;;;;;;;;;5141647;27;20054;-78
2022/02/03 10:37:03;;;;;;;14.48;4.55;;;;;;;;;;5143198;27;20604;-77
2022/02/03 10:40:04;;;;;;;9.38;5.38;;;;;;;;;;5139792;27;20039;-77
2022/02/03 10:43:11;;;;;;;5.75;4.05;;;;;;;;;;5140076;27;20135;-78
2022/02/03 10:45:57;;;;;;;8.75;4.10;;;;;;;;;;5137813;27;20471;-78
2022/02/03 10:51:43;;;;;;;7.55;4.20;;;;;;;;;;5139069;27;20043;-78
2022/02/03 10:54:34;;;;;;;7.07;3.95;;;;;;;;;;5136670;27;20047;-77
2022/02/03 10:57:34;;;;;;;9.18;3.97;;;;;;;;;;5137905;27;20494;-77
2022/02/03 11:00:15;;;;;;;6.00;3.50;;;;;;;;;;5135590;27;20130;-77
2022/02/03 11:03:10;;;;;;;5.85;3.45;;;;;;;;;;5138767;27;20046;-78
2022/02/03 11:05:53;;;;;;;4.13;2.72;;;;;;;;;;5137611;27;20043;-76
2022/02/03 11:08:26;;;;;;;6.32;3.55;;;;;;;;;;5140359;27;21255;-77
2022/02/03 11:10:58;;;;;;;7.03;3.50;;;;;;;;;;5141747;27;20039;-77
2022/02/03 11:13:30;;;;;;;5.25;3.33;;;;;;;;;;5139473;27;21533;-77
2022/02/03 11:16:00;;;;;;;6.07;3.20;;;;;;;;;;5135015;27;20074;-77
2022/02/03 11:18:28;;;;;;;7.60;4.10;;;;;;;;;;5139574;27;20063;-77
2022/02/03 11:20:54;;;;;;;6.18;3.45;;;;;;;;;;5143765;27;20074;-77
2022/02/03 11:23:32;;;;;;;5.82;3.28;;;;;;;;;;5137401;27;20106;-77
2022/02/03 11:26:08;;;;;;;6.55;3.85;;;;;;;;;;5136487;27;20043;-77
2022/02/03 11:28:56;;;;;;;6.00;3.50;;;;;;;;;;5141005;27;20138;-78
2022/02/03 11:44:11;;;;;;;8.55;4.10;;;;;;;;;;5144956;27;20415;-77
2022/02/03 11:53:13;;;;;;;7.07;3.60;;;;;;;;;;5144161;27;20395;-79
2022/02/03 12:04:49;;;;;;;12.95;4.45;;;;;;;;;;5147974;27;20159;-77
2022/02/03 12:07:34;;;;;;;11.68;4.45;;;;;;;;;;5142967;27;20134;-77
2022/02/03 12:10:43;;;;;;;8.60;5.45;;;;;;;;;;5141574;27;20055;-77
2022/02/03 12:16:09;;;;;;;21.58;6.35;;;;;;;;;;5142073;27;20074;-78
2022/02/03 12:21:29;;;;;;;6.57;4.00;;;;;;;;;;5145447;27;20092;-77
2022/02/03 12:24:19;;;;;;;5.40;3.45;;;;;;;;;;5137532;27;20427;-77
2022/02/03 12:26:51;;;;;;;6.18;3.72;;;;;;;;;;5138960;27;20050;-77
2022/02/03 12:29:28;;;;;;;6.63;4.30;;;;;;;;;;5140195;27;20134;-78
2022/02/03 12:32:04;;;;;;;7.53;4.55;;;;;;;;;;5132161;27;20070;-79
2022/02/03 12:40:01;;;;;;;6.00;3.72;;;;;;;;;;5140908;27;20055;-78
2022/02/03 12:45:17;;;;;;;;;;;;;;;;;;5132988;27;20047;-78
2022/02/03 12:47:47;;;;;;;5.25;3.35;;;;;;;;;;5127317;27;19923;-79
2022/02/03 12:50:15;;;;;;;5.43;3.45;;;;;;;;;;5123589;27;20049;-78
2022/02/03 12:52:43;;;;;;;5.43;3.50;;;;;;;;;;5116973;27;20040;-79
2022/02/03 12:55:20;;;;;;;5.00;3.60;;;;;;;;;;5122459;27;20047;-78
2022/02/03 12:57:48;;;;;;;6.72;4.10;;;;;;;;;;5124773;27;20407;-79
2022/02/03 13:00:21;;;;;;;4.13;2.67;;;;;;;;;;5122912;27;20079;-78
2022/02/03 13:02:52;;;;;;;4.28;2.85;;;;;;;;;;5122968;27;20054;-79
2022/02/03 13:05:23;;;;;;;4.65;2.47;;;;;;;;;;5126248;27;20086;-78
2022/02/03 13:07:54;;;;;;;4.93;3.40;;;;;;;;;;5122434;27;20063;-79
2022/02/03 13:10:24;;;;;;;5.20;3.10;;;;;;;;;;5123295;27;20035;-77
2022/02/03 13:12:58;;;;;;;3.67;2.05;;;;;;;;;;5128209;27;20040;-79
2022/02/03 13:15:34;;;;;;;4.18;2.38;;;;;;;;;;5122942;27;20043;-77
2022/02/03 13:18:05;;;;;;;3.55;2.10;;;;;;;;;;5122416;27;20411;-78
2022/02/03 13:20:38;;;;;;;3.30;2.08;;;;;;;;;;5127004;27;20089;-78
2022/02/03 13:23:09;;;;;;;3.00;1.90;;;;;;;;;;5120986;27;20071;-76
2022/02/03 13:25:48;;;;;;;3.13;1.98;;;;;;;;;;5126270;27;20547;-77
2022/02/03 13:28:19;;;;;;;2.80;2.03;;;;;;;;;;5121167;27;20796;-79
2022/02/03 13:30:50;;;;;;;3.97;1.90;;;;;;;;;;5123548;27;20043;-80
2022/02/03 13:33:23;;;;;;;3.20;1.90;;;;;;;;;;5123763;27;20699;-83
2022/02/03 13:35:55;;;;;;;3.63;2.00;;;;;;;;;;5125834;27;20120;-79
2022/02/03 13:38:39;;;;;;;4.03;1.75;;;;;;;;;;5105420;27;20046;-80
2022/02/03 13:41:12;;;;;;;3.75;2.20;;;;;;;;;;5123182;27;20118;-79
2022/02/03 13:43:40;;;;;;;3.08;1.60;;;;;;;;;;5123921;27;20042;-80
2022/02/03 13:46:07;;;;;;;2.95;1.58;;;;;;;;;;5130040;27;20799;-80
2022/02/03 13:48:37;;;;;;;2.22;1.45;;;;;;;;;;5128497;27;20039;-82
2022/02/03 13:51:08;;;;;;;5.15;1.63;;;;;;;;;;5130506;27;20050;-81
2022/02/03 13:53:40;;;;;;;2.45;1.50;;;;;;;;;;5124869;27;20127;-80
2022/02/03 14:15:57;;;;;;;2.75;1.02;;;;;;;;;;5133508;27;20045;-82
2022/02/03 14:18:36;;;;;;;3.55;1.20;;;;;;;;;;5123062;27;20076;-80
2022/02/03 14:21:05;;;;;;;2.53;1.40;;;;;;;;;;5121530;27;20067;-82
2022/02/03 14:29:07;;;;;;;6.38;4.00;;;;;;;;;;5127539;27;20054;-81
2022/02/03 14:31:38;;;;;;;2.80;1.67;;;;;;;;;;5121397;27;20543;-81
2022/02/03 14:34:10;;;;;;;4.35;2.42;;;;;;;;;;5124569;27;20134;-79
2022/02/03 14:36:37;;;;;;;4.03;2.03;;;;;;;;;;5121383;27;20126;-78
2022/02/03 14:39:13;;;;;;;6.53;3.40;;;;;;;;;;5119859;27;20175;-79
2022/02/03 14:41:44;;;;;;;5.07;2.65;;;;;;;;;;5121001;27;20050;-78
2022/02/03 14:44:16;;;;;;;4.97;2.53;;;;;;;;;;5125105;27;20078;-79
2022/02/03 14:46:42;;;;;;;6.68;3.40;;;;;;;;;;5119728;27;20051;-78
2022/02/03 14:49:10;;;;;;;7.43;2.55;;;;;;;;;;5120397;27;20071;-78
2022/02/03 14:51:47;;;;;;;4.75;2.58;;;;;;;;;;5125126;27;20051;-78
2022/02/03 14:59:45;;;;;;;3.75;1.55;;;;;;;;;;5129119;27;20132;-78
2022/02/03 15:02:12;;;;;;;2.47;1.20;;;;;;;;;;5128411;27;20048;-78
2022/02/03 15:04:41;;;;;;;3.20;1.55;;;;;;;;;;5132621;27;20074;-78
2022/02/03 15:07:10;;;;;;;4.88;1.98;;;;;;;;;;5126607;27;20039;-77
2022/02/03 15:10:13;;;;;;;2.80;1.30;;;;;;;;;;5129559;27;20053;-79
2022/02/03 15:12:56;;;;;;;6.10;2.63;;;;;;;;;;5124940;27;20099;-78
2022/02/03 15:15:23;;;;;;;3.58;2.60;;;;;;;;;;5126718;27;20411;-79
2022/02/03 15:17:50;;;;;;;5.00;2.35;;;;;;;;;;5125245;27;20089;-78
2022/02/03 15:20:16;;;;;;;2.95;2.05;;;;;;;;;;5125527;27;20078;-78
2022/02/03 15:22:43;;;;;;;2.75;1.23;;;;;;;;;;5123328;27;20559;-79
2022/02/03 15:25:11;;;;;;;4.07;1.60;;;;;;;;;;5119484;27;20064;-79
2022/02/03 15:27:38;;;;;;;1.63;0.95;;;;;;;;;;5123343;27;20039;-79
2022/02/03 15:30:05;;;;;;;6.00;1.40;;;;;;;;;;5125182;27;20071;-80
2022/02/03 15:32:38;;;;;;;1.83;1.00;;;;;;;;;;5126810;28;20081;-80
2022/02/03 15:35:08;;;;;;;1.42;0.85;;;;;;;;;;5120349;27;20044;-80
2022/02/03 15:37:35;;;;;;;2.53;1.33;;;;;;;;;;5123068;28;20071;-80
2022/02/03 15:40:05;;;;;;;5.43;3.08;;;;;;;;;;5119063;28;20043;-78
2022/02/03 15:42:38;;;;;;;7.72;3.47;;;;;;;;;;5125234;28;20070;-79
2022/02/03 15:45:07;;;;;;;6.30;3.58;;;;;;;;;;5123773;28;20071;-80
2022/02/03 15:47:40;;;;;;;5.38;2.92;;;;;;;;;;5118443;28;20171;-80
2022/02/03 15:59:27;;;;;;;7.20;3.65;;;;;;;;;;5122852;28;20047;-80
2022/02/03 16:01:49;;;;;;;5.57;3.10;;;;;;;;;;5125777;28;20043;-78
2022/02/03 16:18:05;;;;;;;5.63;2.70;;;;;;;;;;5127996;28;21842;-78
2022/02/03 16:20:42;;;;;;;4.55;2.08;;;;;;;;;;5128490;27;20035;-79
2022/02/03 16:23:29;;;;;;;6.85;2.88;;;;;;;;;;5128932;27;20082;-79
2022/02/03 16:26:40;;;;;;;8.55;2.80;;;;;;;;;;5120832;27;20042;-79
2022/02/03 16:51:34;;;;;;;6.68;3.53;;;;;;;;;;5126530;27;20096;-79
2022/02/03 16:54:07;;;;;;;2.75;1.70;;;;;;;;;;5127358;27;20547;-78
2022/02/03 16:56:34;;;;;;;4.45;2.92;;;;;;;;;;5125202;27;20095;-79
2022/02/03 16:59:01;;;;;;;2.25;2.00;;;;;;;;;;5124694;27;20055;-79
2022/02/03 17:01:27;;;;;;;6.78;5.80;;;;;;;;;;5120627;27;20122;-79
2022/02/03 17:03:54;;;;;;;4.75;2.42;;;;;;;;;;5122430;27;20426;-79
2022/02/03 17:06:21;;;;;;;5.63;4.15;;;;;;;;;;5120812;27;20039;-79
2022/02/03 17:08:48;;;;;;;5.28;3.58;;;;;;;;;;5125014;27;20100;-78
2022/02/03 17:11:17;;;;;;;8.50;5.40;;;;;;;;;;5127647;27;20070;-79
2022/02/03 17:13:43;;;;;;;5.90;3.58;;;;;;;;;;5129966;27;20491;-78
2022/02/03 17:16:13;;;;;;;3.05;1.73;;;;;;;;;;5124968;27;20425;-78
2022/02/03 17:18:40;;;;;;;4.00;2.45;;;;;;;;;;5126217;27;20513;-78
2022/02/03 17:21:06;;;;;;;4.32;3.08;;;;;;;;;;5123011;27;20035;-79
2022/02/03 17:23:33;;;;;;;5.13;3.95;;;;;;;;;;5129567;27;20495;-78
2022/02/03 17:26:08;;;;;;;5.28;3.30;;;;;;;;;;5120772;27;22103;-79
2022/02/03 17:28:42;;;;;;;5.00;4.30;;;;;;;;;;5122973;27;20046;-78
2022/02/03 17:31:15;;;;;;;4.57;3.42;;;;;;;;;;5127050;27;20047;-79
2022/02/03 17:45:24;;;;;;;3.92;3.20;;;;;;;;;;5121713;27;20050;-79
2022/02/03 18:46:26;;;;;;;8.30;5.15;;;;;;;;;;5120841;27;20495;-78
2022/02/03 18:51:32;;;;;;;9.07;5.50;;;;;;;;;;5121271;27;20039;-78
2022/02/03 18:54:12;;;;;;;9.82;5.50;;;;;;;;;;5121055;27;20134;-80
2022/02/03 18:56:44;;;;;;;7.82;4.80;;;;;;;;;;5118409;27;20043;-81
2022/02/03 18:59:24;;;;;;;5.97;3.92;;;;;;;;;;5121203;27;20069;-79
2022/02/03 19:02:15;;;;;;;8.02;4.30;;;;;;;;;;5122732;27;20047;-79
2022/02/03 19:59:26;;;;;;;7.35;4.25;;;;;;;;;;5124537;27;20421;-79
2022/02/03 20:06:29;;;;;;;35.28;18.08;;;;;;;;;;5124261;28;20036;-78
2022/02/03 20:09:04;;;;;;;12.43;6.40;;;;;;;;;;5121747;28;20051;-79
2022/02/03 20:11:34;;;;;;;9.07;4.60;;;;;;;;;;5125200;27;20449;-78
2022/02/03 20:14:00;;;;;;;8.73;4.95;;;;;;;;;;5123743;27;20298;-78
2022/02/03 20:16:27;;;;;;;8.35;5.28;;;;;;;;;;5123540;27;20673;-78
2022/02/03 20:18:54;;;;;;;9.00;5.40;;;;;;;;;;5119756;28;20083;-77
2022/02/03 20:21:21;;;;;;;14.05;6.50;;;;;;;;;;5122160;28;20067;-77
2022/02/03 20:23:47;;;;;;;14.82;8.25;;;;;;;;;;5122086;28;20043;-79
2022/02/03 20:26:17;;;;;;;10.23;6.63;;;;;;;;;;5124246;27;20080;-78
2022/02/03 20:28:46;;;;;;;7.28;5.50;;;;;;;;;;5119674;28;20043;-78
2022/02/03 20:31:13;;;;;;;9.80;5.43;;;;;;;;;;5108576;28;20046;-77
2022/02/03 20:33:39;;;;;;;8.43;5.30;;;;;;;;;;5108770;28;20070;-79
2022/02/03 20:36:07;;;;;;;8.15;5.55;;;;;;;;;;5109448;28;20177;-77
2022/02/03 20:38:34;;;;;;;10.32;5.82;;;;;;;;;;5107470;28;20102;-78
2022/02/03 20:41:01;;;;;;;9.52;5.78;;;;;;;;;;5110612;28;20075;-77
2022/02/03 20:43:28;;;;;;;8.60;5.40;;;;;;;;;;5110210;27;20079;-79
2022/02/03 20:45:55;;;;;;;10.57;6.22;;;;;;;;;;5111237;28;20075;-78
2022/02/03 20:48:22;;;;;;;14.07;7.55;;;;;;;;;;5109903;28;20094;-78
2022/02/03 20:50:49;;;;;;;12.07;6.28;;;;;;;;;;5109654;27;20130;-78
2022/02/03 20:53:16;;;;;;;12.45;6.97;;;;;;;;;;5109833;28;20077;-79
2022/02/03 20:55:43;;;;;;;13.38;7.40;;;;;;;;;;5107807;28;20071;-79
2022/02/03 20:58:14;;;;;;;14.18;7.38;;;;;;;;;;5110310;27;20039;-79
2022/02/03 21:00:46;;;;;;;11.38;7.38;;;;;;;;;;5109784;28;20035;-78
2022/02/03 21:03:19;;;;;;;11.68;8.32;;;;;;;;;;5108836;28;20071;-79
2022/02/03 21:05:46;;;;;;;14.48;9.55;;;;;;;;;;5110752;28;20056;-78
2022/02/03 21:08:14;;;;;;;19.88;11.50;;;;;;;;;;5114235;27;20047;-78
2022/02/03 21:10:41;;;;;;;13.75;8.80;;;;;;;;;;5112330;28;20071;-77
2022/02/03 21:13:07;;;;;;;22.35;11.77;;;;;;;;;;5114479;28;20113;-79
2022/02/03 21:15:36;;;;;;;20.73;12.40;;;;;;;;;;5112977;27;20122;-80
2022/02/03 21:18:08;;;;;;;21.02;12.43;;;;;;;;;;5113442;28;20059;-78
2022/02/03 21:20:36;;;;;;;18.48;11.13;;;;;;;;;;5113667;27;20051;-79
2022/02/03 21:23:04;;;;;;;25.30;13.77;;;;;;;;;;5116422;28;20040;-78
2022/02/03 21:25:34;;;;;;;21.65;12.95;;;;;;;;;;5116529;27;20814;-78
2022/02/03 21:28:08;;;;;;;19.27;12.52;;;;;;;;;;5114842;28;20445;-78
2022/02/03 21:30:34;;;;;;;19.17;11.32;;;;;;;;;;5112412;27;20067;-78
2022/02/03 21:33:01;;;;;;;18.10;11.95;;;;;;;;;;5115839;28;20040;-78
2022/02/03 21:35:29;;;;;;;19.25;11.40;;;;;;;;;;5115042;28;20736;-77
2022/02/03 21:37:56;;;;;;;17.45;11.25;;;;;;;;;;5116201;27;20043;-79
2022/02/03 21:40:23;;;;;;;19.58;11.85;;;;;;;;;;5112943;28;20404;-78
2022/02/03 21:42:56;;;;;;;18.25;11.05;;;;;;;;;;5115255;28;20040;-80
2022/02/03 21:45:23;;;;;;;11.95;8.25;;;;;;;;;;5113182;28;20043;-79
2022/02/03 21:47:50;;;;;;;16.63;8.75;;;;;;;;;;5114714;28;20055;-77
2022/02/03 21:50:17;;;;;;;10.32;6.90;;;;;;;;;;5113532;28;20036;-78
2022/02/03 21:52:48;;;;;;;9.55;5.97;;;;;;;;;;5107359;28;20035;-78
2022/02/03 21:55:15;;;;;;;12.95;5.47;;;;;;;;;;5113824;28;20044;-78
2022/02/03 21:57:44;;;;;;;7.88;4.25;;;;;;;;;;5115316;27;20119;-78
2022/02/03 22:00:14;;;;;;;7.40;4.55;;;;;;;;;;5111842;28;20048;-78
2022/02/03 22:02:41;;;;;;;7.15;4.65;;;;;;;;;;5112626;28;20043;-78
2022/02/03 22:05:08;;;;;;;7.45;4.60;;;;;;;;;;5114091;28;20479;-79
2022/02/03 22:07:36;;;;;;;7.53;5.03;;;;;;;;;;5114467;28;20044;-77
2022/02/03 22:10:05;;;;;;;8.25;4.80;;;;;;;;;;5114604;28;20063;-78
2022/02/03 22:12:32;;;;;;;7.82;3.60;;;;;;;;;;5114800;28;20063;-78
2022/02/03 22:14:58;;;;;;;8.10;3.70;;;;;;;;;;5110840;27;20074;-79
2022/02/03 22:17:25;;;;;;;8.05;4.32;;;;;;;;;;5112388;28;20106;-78
2022/02/03 22:19:53;;;;;;;6.85;3.78;;;;;;;;;;5114829;27;20043;-78
2022/02/03 22:22:36;;;;;;;7.75;3.80;;;;;;;;;;5115815;27;20047;-78
2022/02/03 22:25:24;;;;;;;5.95;3.13;;;;;;;;;;5114357;28;20052;-79
2022/02/03 22:28:07;;;;;;;6.88;3.15;;;;;;;;;;5115133;28;20083;-79
2022/02/03 22:38:59;;;;;;;4.15;2.50;;;;;;;;;;5112741;27;20050;-79
2022/02/03 22:44:11;;;;;;;4.30;2.78;;;;;;;;;;5112276;28;20119;-78
2022/02/03 22:46:54;;;;;;;4.75;2.65;;;;;;;;;;5113732;28;20036;-79
2022/02/03 22:49:21;;;;;;;6.05;3.05;;;;;;;;;;5112217;28;20055;-79
2022/02/03 22:51:47;;;;;;;4.18;2.50;;;;;;;;;;5111310;28;20071;-79
2022/02/03 22:54:14;;;;;;;4.88;2.90;;;;;;;;;;5114389;28;20108;-78
2022/02/03 22:56:42;;;;;;;7.30;2.38;;;;;;;;;;5114881;28;20039;-78
2022/02/03 23:02:02;;;;;;;5.80;2.95;;;;;;;;;;5113570;28;20044;-79
2022/02/03 23:04:29;;;;;;;4.00;2.05;;;;;;;;;;5112379;28;20071;-77
2022/02/03 23:07:05;;;;;;;5.85;2.50;;;;;;;;;;5114771;28;20048;-80
2022/02/03 23:09:43;;;;;;;4.10;2.47;;;;;;;;;;5115030;28;20047;-78
2022/02/03 23:12:15;;;;;;;5.50;2.70;;;;;;;;;;5115132;28;20054;-78
2022/02/03 23:17:41;;;;;;;4.55;2.88;;;;;;;;;;5111557;28;20069;-77
2022/02/03 23:20:13;;;;;;;6.18;3.90;;;;;;;;;;5113315;28;20407;-79
2022/02/03 23:22:41;;;;;;;8.20;4.43;;;;;;;;;;5115940;28;20051;-79
2022/02/03 23:25:10;;;;;;;6.32;3.38;;;;;;;;;;5115380;28;20043;-79
2022/02/03 23:28:00;;;;;;;6.13;3.33;;;;;;;;;;5117846;28;20101;-78
2022/02/03 23:30:27;;;;;;;7.57;4.13;;;;;;;;;;5114194;28;20043;-78
2022/02/03 23:32:55;;;;;;;6.82;3.97;;;;;;;;;;5115169;28;20054;-79
2022/02/03 23:35:24;;;;;;;5.47;3.63;;;;;;;;;;5114919;28;20044;-78
2022/02/03 23:37:59;;;;;;;6.00;3.42;;;;;;;;;;5112601;28;20078;-79
2022/02/03 23:40:47;;;;;;;5.50;3.45;;;;;;;;;;5112379;28;20036;-79
2022/02/03 23:46:18;;;;;;;6.75;4.35;;;;;;;;;;5109838;28;20047;-78